Time;durP1;ratioP1;P1;durP2;ratioP2;P2;SDS_P1;SDS_P2;PMS_P1;PMS_P2;Temp;Humidity;BMP_temperature;BMP_pressure;BME280_temperature;BME280_humidity;BME280_pressure;Samples;Min_cycle;Max_cycle;Signal;HPM_P1;HPM_P2
2022/06/08 00:01:58;;;;;;;;;;;;;;;23.01;43.73;100697.97;5017869;28;99048;-80
2022/06/08 00:04:25;;;;;;;;;;;;;;;22.87;43.60;100701.00;5007516;28;98018;-81
2022/06/08 00:06:53;;;;;;;;;;;;;;;23.07;43.01;100697.41;5012143;27;96944;-80
2022/06/08 00:09:20;;;;;;;;;;;;;;;23.05;43.47;100702.94;5012182;28;101536;-79
2022/06/08 00:11:46;;;;;;;;;;;;;;;23.15;43.69;100702.13;5010749;28;99363;-79
2022/06/08 00:14:13;;;;;;;;;;;;;;;22.96;44.18;100700.22;4998082;28;97012;-77
2022/06/08 00:16:39;;;;;;;;;;;;;;;23.02;44.18;100696.97;5010213;28;97724;-79
2022/06/08 00:19:05;;;;;;;;;;;;;;;22.95;44.25;100687.72;5007040;28;99170;-78
2022/06/08 00:21:32;;;;;;;;;;;;;;;22.91;44.36;100697.06;5021186;28;99424;-79
2022/06/08 00:24:00;;;;;;;;;;;;;;;23.34;43.68;100694.13;4994986;28;96901;-79
2022/06/08 00:26:26;;;;;;;;;;;;;;;22.99;44.11;100698.09;5010500;28;97648;-80
2022/06/08 00:28:52;;;;;;;;;;;;;;;23.15;43.78;100691.34;5018966;28;97752;-80
2022/06/08 00:31:19;;;;;;;;;;;;;;;22.99;44.27;100703.47;5013886;28;98956;-78
2022/06/08 00:33:45;;;;;;;;;;;;;;;23.24;43.65;100695.91;5020502;28;96862;-81
2022/06/08 00:36:12;;;;;;;;;;;;;;;22.83;44.44;100704.97;5010972;28;96873;-79
2022/06/08 00:38:38;;;;;;;;;;;;;;;23.00;44.05;100698.94;5008257;28;99457;-81
2022/06/08 00:41:14;;;;;;;;;;;;;;;22.82;44.72;100701.41;5010961;28;99340;-79
2022/06/08 00:43:40;;;;;;;;;;;;;;;23.14;43.83;100700.44;5016688;28;97230;-81
2022/06/08 00:46:08;;;;;;;;;;;;;;;22.85;44.60;100700.28;5012738;28;96816;-81
2022/06/08 00:48:37;;;;;;;;;;;;;;;22.66;44.70;100699.16;5010572;28;98836;-80
2022/06/08 00:51:03;;;;;;;;;;;;;;;22.94;43.86;100694.97;5016277;28;98710;-79
2022/06/08 00:53:31;;;;;;;;;;;;;;;22.84;44.21;100699.44;5014965;28;96998;-79
2022/06/08 00:55:59;;;;;;;;;;;;;;;22.63;44.67;100699.44;5015858;28;98223;-79
2022/06/08 00:58:29;;;;;;;;;;;;;;;22.64;44.78;100698.44;5006106;28;99235;-79
2022/06/08 01:00:58;;;;;;;;;;;;;;;22.64;44.46;100700.31;5008314;28;98753;-79
2022/06/08 01:03:25;;;;;;;;;;;;;;;22.53;44.75;100695.81;5007197;28;96915;-78
2022/06/08 01:05:56;;;;;;;;;;;;;;;22.35;45.10;100686.63;5016544;28;97022;-78
2022/06/08 01:08:28;;;;;;;;;;;;;;;22.58;44.39;100698.97;5004283;28;118273;-77
2022/06/08 01:10:56;;;;;;;;;;;;;;;22.67;44.18;100692.78;5023340;28;99285;-78
2022/06/08 01:13:23;;;;;;;;;;;;;;;22.60;44.48;100690.75;4999913;28;96866;-79
2022/06/08 01:15:51;;;;;;;;;;;;;;;22.39;44.57;100690.75;5012747;28;96959;-79
2022/06/08 01:18:17;;;;;;;;;;;;;;;22.40;44.40;100684.41;5007346;28;99086;-80
2022/06/08 01:20:44;;;;;;;;;;;;;;;22.35;44.63;100681.25;5019606;28;98922;-78
2022/06/08 01:23:12;;;;;;;;;;;;;;;22.32;45.16;100675.28;5010715;28;97024;-79
2022/06/08 01:25:44;;;;;;;;;;;;;;;22.19;45.28;100680.84;5012037;28;97166;-79
2022/06/08 01:28:14;;;;;;;;;;;;;;;22.24;45.26;100681.31;4999058;28;99022;-80
2022/06/08 01:30:44;;;;;;;;;;;;;;;22.09;45.75;100677.22;5017249;28;100618;-80
2022/06/08 01:33:28;;;;;;;;;;;;;;;22.52;44.96;100679.78;5007041;28;96869;-80
2022/06/08 01:36:00;;;;;;;;;;;;;;;22.34;44.72;100673.31;5005021;28;97543;-79
2022/06/08 01:38:33;;;;;;;;;;;;;;;22.36;44.80;100674.88;5001487;28;99203;-79
2022/06/08 01:41:05;;;;;;;;;;;;;;;22.04;45.54;100677.63;5015586;28;98967;-80
2022/06/08 01:43:39;;;;;;;;;;;;;;;22.42;44.71;100670.81;5007173;28;98088;-79
2022/06/08 01:46:14;;;;;;;;;;;;;;;22.55;43.83;100668.78;5007043;28;98932;-79
2022/06/08 01:48:50;;;;;;;;;;;;;;;22.26;44.76;100668.56;5005652;28;96899;-78
2022/06/08 01:51:22;;;;;;;;;;;;;;;21.82;45.90;100673.16;5012027;28;99220;-79
2022/06/08 01:53:53;;;;;;;;;;;;;;;21.70;46.74;100668.81;5004973;28;96752;-79
2022/06/08 01:56:21;;;;;;;;;;;;;;;21.79;46.59;100667.19;5010976;28;96832;-79
2022/06/08 01:58:51;;;;;;;;;;;;;;;21.71;47.13;100665.13;5001054;28;98692;-79
2022/06/08 02:01:20;;;;;;;;;;;;;;;21.48;47.33;100664.34;5012302;28;98996;-79
2022/06/08 02:03:52;;;;;;;;;;;;;;;21.54;47.70;100662.97;5011196;28;97495;-81
2022/06/08 02:06:22;;;;;;;;;;;;;;;21.79;46.84;100668.00;5002582;28;97206;-78
2022/06/08 02:08:50;;;;;;;;;;;;;;;21.52;47.38;100667.63;5007796;28;97913;-79
2022/06/08 02:11:20;;;;;;;;;;;;;;;21.62;46.81;100671.25;5012438;28;99071;-79
2022/06/08 02:13:48;;;;;;;;;;;;;;;21.20;48.50;100669.41;5013624;28;96893;-79
2022/06/08 02:16:17;;;;;;;;;;;;;;;21.10;49.05;100669.25;5016967;28;96994;-80
2022/06/08 02:18:46;;;;;;;;;;;;;;;21.00;49.26;100673.66;5013188;28;98928;-79
2022/06/08 02:21:15;;;;;;;;;;;;;;;21.23;48.51;100670.00;5009107;28;98755;-79
2022/06/08 02:23:44;;;;;;;;;;;;;;;21.32;48.43;100669.28;5000389;28;96844;-78
2022/06/08 02:26:13;;;;;;;;;;;;;;;21.44;48.07;100672.78;5003864;28;96978;-79
2022/06/08 02:28:42;;;;;;;;;;;;;;;21.20;48.30;100670.25;5013829;28;101361;-79
2022/06/08 02:31:11;;;;;;;;;;;;;;;21.32;47.80;100671.09;5020363;28;100682;-78
2022/06/08 02:36:26;;;;;;;;;;;;;;;21.09;48.22;100667.53;5000554;28;96884;-77
2022/06/08 02:38:55;;;;;;;;;;;;;;;21.23;48.06;100671.84;5009697;28;99014;-78
2022/06/08 02:41:23;;;;;;;;;;;;;;;21.44;47.68;100678.16;5017080;28;99454;-78
2022/06/08 02:43:52;;;;;;;;;;;;;;;21.58;47.62;100683.25;5014886;28;97255;-78
2022/06/08 02:46:23;;;;;;;;;;;;;;;21.57;47.72;100681.56;5002481;28;97173;-77
2022/06/08 02:48:49;;;;;;;;;;;;;;;21.94;46.69;100675.78;5011607;28;99307;-79
2022/06/08 02:51:15;;;;;;;;;;;;;;;21.88;46.50;100683.41;5012880;28;98120;-79
2022/06/08 02:53:51;;;;;;;;;;;;;;;22.22;45.43;100672.50;5018750;28;96824;-79
2022/06/08 02:56:24;;;;;;;;;;;;;;;22.57;44.29;100672.19;5006542;28;97179;-79
2022/06/08 02:58:55;;;;;;;;;;;;;;;22.52;43.50;100677.94;5018059;28;99030;-79
2022/06/08 03:01:29;;;;;;;;;;;;;;;22.46;44.24;100675.78;5009943;28;98969;-79
2022/06/08 03:03:57;;;;;;;;;;;;;;;22.23;45.26;100677.78;5018265;28;96900;-79
2022/06/08 03:06:26;;;;;;;;;;;;;;;22.25;44.91;100672.28;5011861;28;96936;-80
2022/06/08 03:08:54;;;;;;;;;;;;;;;22.09;45.25;100671.84;5004627;28;99161;-79
2022/06/08 03:11:21;;;;;;;;;;;;;;;21.90;45.81;100675.22;5007020;28;100826;-80
2022/06/08 03:13:50;;;;;;;;;;;;;;;22.00;46.36;100670.78;5013403;28;96940;-80
2022/06/08 03:16:26;;;;;;;;;;;;;;;22.28;45.24;100682.75;5018583;28;97031;-80
2022/06/08 03:18:53;;;;;;;;;;;;;;;21.99;45.76;100677.13;5014333;28;98870;-80
2022/06/08 03:21:19;;;;;;;;;;;;;;;22.08;46.24;100672.84;5009530;28;98475;-78
2022/06/08 03:23:46;;;;;;;;;;;;;;;22.26;44.88;100663.19;5024342;28;97362;-77
2022/06/08 03:26:13;;;;;;;;;;;;;;;22.30;44.79;100655.72;5013219;28;96948;-79
2022/06/08 03:28:39;;;;;;;;;;;;;;;22.33;45.10;100666.22;5014915;28;99123;-78
2022/06/08 03:31:06;;;;;;;;;;;;;;;22.79;43.73;100668.50;5007776;28;100049;-79
2022/06/08 03:33:33;;;;;;;;;;;;;;;22.48;43.84;100663.06;5008475;28;96812;-79
2022/06/08 03:36:00;;;;;;;;;;;;;;;22.50;44.13;100673.72;5012490;28;96980;-79
2022/06/08 03:38:26;;;;;;;;;;;;;;;22.42;44.93;100665.44;5008719;28;99302;-78
2022/06/08 03:40:52;;;;;;;;;;;;;;;22.83;42.10;100664.56;5005397;28;99381;-79
2022/06/08 03:43:19;;;;;;;;;;;;;;;22.80;41.22;100656.75;5017862;28;97340;-79
2022/06/08 03:45:47;;;;;;;;;;;;;;;22.90;41.33;100660.34;5010022;28;97510;-78
2022/06/08 03:48:14;;;;;;;;;;;;;;;22.77;42.67;100673.19;5016307;28;99154;-80
2022/06/08 03:50:43;;;;;;;;;;;;;;;22.72;43.62;100672.69;5007851;28;97643;-79
2022/06/08 03:53:12;;;;;;;;;;;;;;;22.84;42.65;100668.97;5000878;28;97661;-79
2022/06/08 03:55:39;;;;;;;;;;;;;;;23.22;41.23;100670.94;5003800;28;98921;-78
2022/06/08 03:58:06;;;;;;;;;;;;;;;23.26;40.56;100673.22;5011020;28;102395;-79
2022/06/08 04:00:33;;;;;;;;;;;;;;;23.24;40.89;100668.94;5019941;28;97696;-78
2022/06/08 04:03:00;;;;;;;;;;;;;;;23.26;41.10;100672.38;5011765;28;96845;-79
2022/06/08 04:05:27;;;;;;;;;;;;;;;23.32;40.17;100672.69;5011136;28;96786;-78
2022/06/08 04:07:54;;;;;;;;;;;;;;;23.91;39.13;100673.66;5017240;28;97704;-79
2022/06/08 04:10:21;;;;;;;;;;;;;;;23.97;39.15;100670.38;5012020;28;97690;-79
2022/06/08 04:12:47;;;;;;;;;;;;;;;23.79;39.94;100670.25;5015212;28;96901;-78
2022/06/08 04:15:41;;;;;;;;;;;;;;;23.54;39.92;100676.16;5011484;28;98458;-78
2022/06/08 04:18:00;;;;;;;;;;;;;;;23.78;39.77;100664.00;5017690;28;98973;-79
2022/06/08 04:20:27;;;;;;;;;;;;;;;23.60;39.56;100672.91;5010366;28;99540;-82
2022/06/08 04:22:54;;;;;;;;;;;;;;;23.49;39.80;100670.34;5010369;28;96921;-82
2022/06/08 04:25:21;;;;;;;;;;;;;;;23.36;39.92;100662.50;5012940;28;96953;-82
2022/06/08 04:27:47;;;;;;;;;;;;;;;23.24;40.20;100664.41;5019628;28;97923;-82
2022/06/08 04:30:14;;;;;;;;;;;;;;;23.28;40.04;100665.88;5024952;28;98859;-82
2022/06/08 04:32:40;;;;;;;;;;;;;;;23.37;39.38;100670.41;5010708;28;96701;-79
2022/06/08 04:35:07;;;;;;;;;;;;;;;23.42;39.36;100665.47;5008701;28;97580;-81
2022/06/08 04:37:37;;;;;;;;;;;;;;;23.42;39.42;100659.22;5021786;28;98868;-81
2022/06/08 04:40:05;;;;;;;;;;;;;;;23.81;38.83;100655.63;5011405;28;99878;-80
2022/06/08 04:42:32;;;;;;;;;;;;;;;24.14;38.53;100667.84;5011926;28;97255;-80
2022/06/08 04:44:59;;;;;;;;;;;;;;;24.54;37.53;100658.72;5006013;28;98518;-81
2022/06/08 04:47:25;;;;;;;;;;;;;;;24.65;37.11;100655.81;5017789;28;98785;-79
2022/06/08 04:49:51;;;;;;;;;;;;;;;24.71;37.13;100662.50;5011863;28;100657;-82
2022/06/08 04:52:18;;;;;;;;;;;;;;;24.47;37.64;100658.44;5012971;28;96814;-79
2022/06/08 04:54:44;;;;;;;;;;;;;;;24.18;38.44;100663.00;5016183;28;96983;-78
2022/06/08 04:57:13;;;;;;;;;;;;;;;24.27;38.53;100647.81;5005783;28;99124;-80
2022/06/08 04:59:40;;;;;;;;;;;;;;;24.44;38.07;100660.56;5002386;28;98900;-80
2022/06/08 05:02:06;;;;;;;;;;;;;;;24.49;37.76;100661.81;5009754;28;96863;-79
2022/06/08 05:04:32;;;;;;;;;;;;;;;25.78;35.93;100653.72;5014782;28;98772;-80
2022/06/08 05:06:58;;;;;;;;;;;;;;;28.20;31.38;100660.59;5005422;28;102341;-80
2022/06/08 05:09:25;;;;;;;;;;;;;;;26.76;32.89;100660.78;5013674;28;99121;-79
2022/06/08 05:11:51;;;;;;;;;;;;;;;26.31;33.89;100661.00;5008932;28;96783;-80
2022/06/08 05:14:19;;;;;;;;;;;;;;;25.89;34.19;100655.34;5014774;28;97298;-80
2022/06/08 05:16:45;;;;;;;;;;;;;;;25.18;36.07;100658.78;5009053;28;97923;-81
2022/06/08 05:19:11;;;;;;;;;;;;;;;24.84;37.19;100658.47;5010477;28;98820;-79
2022/06/08 05:21:38;;;;;;;;;;;;;;;24.82;37.49;100652.34;5012452;28;97493;-81
2022/06/08 05:24:05;;;;;;;;;;;;;;;24.58;38.10;100657.41;5013294;28;97223;-79
2022/06/08 05:26:31;;;;;;;;;;;;;;;24.61;37.76;100655.25;5009735;28;97999;-79
2022/06/08 05:28:57;;;;;;;;;;;;;;;24.99;37.31;100648.06;5020885;28;99198;-79
2022/06/08 05:31:25;;;;;;;;;;;;;;;24.92;37.80;100646.94;5006718;28;97941;-80
2022/06/08 05:33:52;;;;;;;;;;;;;;;25.19;37.24;100651.50;5011670;28;96859;-80
2022/06/08 05:36:18;;;;;;;;;;;;;;;25.55;35.93;100642.44;5009303;28;98861;-80
2022/06/08 05:38:47;;;;;;;;;;;;;;;25.69;35.90;100643.81;5011760;28;98797;-81
2022/06/08 05:41:15;;;;;;;;;;;;;;;24.92;37.21;100645.09;5011016;28;97789;-79
2022/06/08 05:43:41;;;;;;;;;;;;;;;24.89;37.25;100650.78;5012754;28;97329;-80
2022/06/08 05:46:08;;;;;;;;;;;;;;;25.05;37.05;100643.91;5020347;28;98303;-80
2022/06/08 05:48:36;;;;;;;;;;;;;;;24.85;37.15;100652.06;5032413;27;96809;-79
2022/06/08 05:51:02;;;;;;;;;;;;;;;24.98;37.53;100652.59;5029095;28;98539;-82
2022/06/08 05:53:28;;;;;;;;;;;;;;;25.30;37.04;100651.31;5026449;28;97868;-80
2022/06/08 05:55:55;;;;;;;;;;;;;;;25.28;36.60;100654.16;5022602;28;97652;-79
2022/06/08 05:58:21;;;;;;;;;;;;;;;25.27;37.07;100659.72;5018890;28;97524;-80
2022/06/08 06:00:47;;;;;;;;;;;;;;;25.13;36.86;100660.22;5022709;28;97101;-80
2022/06/08 06:03:14;;;;;;;;;;;;;;;25.18;36.89;100660.63;5014263;28;96835;-78
2022/06/08 06:05:41;;;;;;;;;;;;;;;25.03;36.98;100657.56;5019744;28;96770;-78
2022/06/08 06:08:08;;;;;;;;;;;;;;;25.27;36.58;100659.72;5011504;28;97727;-77
2022/06/08 06:10:37;;;;;;;;;;;;;;;25.38;36.72;100652.25;5005840;28;96887;-77
2022/06/08 06:13:03;;;;;;;;;;;;;;;25.43;36.59;100662.63;5021847;28;97211;-79
2022/06/08 06:15:29;;;;;;;;;;;;;;;25.55;36.42;100655.13;5023082;28;99526;-82
2022/06/08 06:17:56;;;;;;;;;;;;;;;25.65;36.43;100654.09;5027565;28;97781;-78
2022/06/08 06:20:22;;;;;;;;;;;;;;;25.45;36.78;100657.06;5016596;28;96773;-78
2022/06/08 06:22:50;;;;;;;;;;;;;;;25.66;36.84;100652.25;5010042;28;96849;-78
2022/06/08 06:25:16;;;;;;;;;;;;;;;26.15;35.54;100656.25;5016048;28;99490;-77
2022/06/08 06:27:43;;;;;;;;;;;;;;;26.63;34.78;100654.94;5014309;28;98092;-79
2022/06/08 06:30:11;;;;;;;;;;;;;;;26.22;35.34;100651.91;5006418;28;96918;-78
2022/06/08 06:32:38;;;;;;;;;;;;;;;26.47;35.04;100651.09;5010526;28;96793;-79
2022/06/08 06:35:05;;;;;;;;;;;;;;;26.68;34.79;100648.03;5006431;28;99449;-78
2022/06/08 06:37:32;;;;;;;;;;;;;;;27.88;32.66;100653.25;5008289;28;99301;-77
2022/06/08 06:39:59;;;;;;;;;;;;;;;27.64;32.62;100656.75;5002752;28;97638;-79
2022/06/08 06:42:28;;;;;;;;;;;;;;;26.98;33.65;100655.66;5013088;28;97024;-77
2022/06/08 06:44:54;;;;;;;;;;;;;;;26.61;33.99;100651.53;5007071;28;98893;-78
2022/06/08 06:47:21;;;;;;;;;;;;;;;26.57;34.33;100654.56;5008171;28;99645;-77
2022/06/08 06:49:47;;;;;;;;;;;;;;;26.48;35.10;100650.09;5013799;28;96837;-76
2022/06/08 06:52:14;;;;;;;;;;;;;;;26.32;35.10;100646.44;5026152;28;97320;-77
2022/06/08 06:54:40;;;;;;;;;;;;;;;26.57;34.95;100651.00;5021405;28;98152;-78
2022/06/08 06:57:08;;;;;;;;;;;;;;;26.56;34.45;100649.31;5021354;28;99368;-77
2022/06/08 06:59:35;;;;;;;;;;;;;;;26.32;35.29;100647.25;5013141;28;96899;-78
2022/06/08 07:02:01;;;;;;;;;;;;;;;26.32;35.31;100652.69;5006201;28;96855;-77
2022/06/08 07:04:27;;;;;;;;;;;;;;;26.60;34.64;100647.97;5011028;28;98909;-77
2022/06/08 07:06:53;;;;;;;;;;;;;;;27.09;33.86;100648.25;5012401;28;98848;-78
2022/06/08 07:09:20;;;;;;;;;;;;;;;27.44;33.43;100649.94;5018716;28;96664;-78
2022/06/08 07:11:46;;;;;;;;;;;;;;;27.60;33.00;100655.41;5028780;28;96759;-78
2022/06/08 07:14:16;;;;;;;;;;;;;;;27.95;32.74;100657.00;5001534;28;99408;-79
2022/06/08 07:16:45;;;;;;;;;;;;;;;27.63;33.14;100644.25;5021866;28;97066;-78
2022/06/08 07:19:12;;;;;;;;;;;;;;;27.11;33.89;100649.78;5016560;28;96641;-76
2022/06/08 07:21:38;;;;;;;;;;;;;;;27.54;33.46;100640.66;5019747;28;96677;-78
2022/06/08 07:24:05;;;;;;;;;;;;;;;27.44;33.87;100648.03;5030368;28;97660;-78
2022/06/08 07:26:31;;;;;;;;;;;;;;;27.29;33.95;100641.56;5017092;27;101711;-77
2022/06/08 07:28:58;;;;;;;;;;;;;;;26.77;34.38;100647.06;5027891;28;96684;-78
2022/06/08 07:31:26;;;;;;;;;;;;;;;26.94;34.64;100639.88;5016475;28;97060;-79
2022/06/08 07:33:53;;;;;;;;;;;;;;;27.20;34.26;100640.69;5011135;28;99290;-78
2022/06/08 07:36:20;;;;;;;;;;;;;;;27.48;33.62;100643.16;5011813;28;98819;-77
2022/06/08 07:38:46;;;;;;;;;;;;;;;27.54;33.44;100640.66;5021718;28;96817;-79
2022/06/08 07:41:13;;;;;;;;;;;;;;;27.71;33.25;100641.50;5014807;28;96844;-78
2022/06/08 07:43:39;;;;;;;;;;;;;;;28.07;32.51;100639.34;5022334;28;100420;-78
2022/06/08 07:46:06;;;;;;;;;;;;;;;27.95;32.69;100635.28;5023049;28;98807;-78
2022/06/08 07:51:17;;;;;;;;;;;;;;;28.44;32.18;100634.25;5020550;28;96799;-77
2022/06/08 07:53:44;;;;;;;;;;;;;;;28.80;31.86;100637.44;5018131;28;96924;-77
2022/06/08 07:56:10;;;;;;;;;;;;;;;29.12;31.42;100633.75;5014382;28;98834;-77
2022/06/08 07:58:37;;;;;;;;;;;;;;;29.57;30.72;100629.44;5016424;28;97174;-78
2022/06/08 08:01:04;;;;;;;;;;;;;;;28.89;31.34;100627.34;5013947;28;96867;-78
2022/06/08 08:03:30;;;;;;;;;;;;;;;28.55;32.05;100630.34;5002717;28;100138;-77
2022/06/08 08:05:58;;;;;;;;;;;;;;;28.82;31.79;100621.78;5013498;28;97746;-78
2022/06/08 08:08:24;;;;;;;;;;;;;;;29.47;30.83;100618.78;5007925;28;96895;-78
2022/06/08 08:10:50;;;;;;;;;;;;;;;29.15;30.92;100627.94;5005903;28;97036;-78
2022/06/08 08:13:16;;;;;;;;;;;;;;;28.83;31.85;100619.91;5011320;28;99025;-77
2022/06/08 08:15:44;;;;;;;;;;;;;;;28.64;32.24;100621.13;5007077;28;98949;-77
2022/06/08 08:18:10;;;;;;;;;;;;;;;28.32;32.44;100623.91;5013582;28;96768;-78
2022/06/08 08:20:36;;;;;;;;;;;;;;;28.76;31.99;100617.03;5016287;28;97246;-80
2022/06/08 08:23:04;;;;;;;;;;;;;;;29.22;31.21;100614.47;5018012;28;99209;-78
2022/06/08 08:25:31;;;;;;;;;;;;;;;29.01;31.79;100622.41;5017724;28;98861;-78
2022/06/08 08:27:58;;;;;;;;;;;;;;;28.41;32.52;100623.75;5013137;28;97967;-78
2022/06/08 08:30:26;;;;;;;;;;;;;;;27.86;33.50;100617.28;5013053;28;97452;-78
2022/06/08 08:32:52;;;;;;;;;;;;;;;28.53;32.55;100616.91;5014891;28;98928;-78
2022/06/08 08:35:18;;;;;;;;;;;;;;;28.39;32.54;100608.63;5011979;28;98979;-79
2022/06/08 08:37:45;;;;;;;;;;;;;;;28.35;32.44;100608.13;5008536;28;96871;-77
2022/06/08 08:40:26;;;;;;;;;;;;;;;27.96;33.29;100618.78;5005727;28;96774;-78
2022/06/08 08:42:53;;;;;;;;;;;;;;;28.04;33.60;100602.50;5010804;28;98886;-78
2022/06/08 08:45:19;;;;;;;;;;;;;;;28.80;31.96;100593.09;5018945;28;97899;-78
2022/06/08 08:47:49;;;;;;;;;;;;;;;28.66;32.31;100600.06;5009789;28;96871;-78
2022/06/08 08:50:17;;;;;;;;;;;;;;;28.79;32.24;100605.81;5016197;28;96874;-78
2022/06/08 08:52:49;;;;;;;;;;;;;;;28.73;32.22;100595.63;5005458;28;98990;-78
2022/06/08 08:55:19;;;;;;;;;;;;;;;29.34;30.88;100594.03;5009469;28;101111;-77
2022/06/08 08:57:52;;;;;;;;;;;;;;;29.54;30.69;100591.69;5005558;28;96807;-77
2022/06/08 09:00:19;;;;;;;;;;;;;;;28.96;31.31;100589.44;5011484;28;96778;-78
2022/06/08 09:05:31;;;;;;;;;;;;;;;28.61;32.25;100588.88;5007520;28;97022;-77
2022/06/08 09:07:58;;;;;;;;;;;;;;;28.32;32.39;100589.44;5006376;28;96711;-78
2022/06/08 09:10:27;;;;;;;;;;;;;;;28.21;32.51;100589.81;5012922;28;96824;-78
2022/06/08 09:12:53;;;;;;;;;;;;;;;28.60;31.64;100580.88;5012757;28;99232;-77
2022/06/08 09:15:39;;;;;;;;;;;;;;;29.28;30.92;100575.66;5015703;28;98808;-77
2022/06/08 09:18:06;;;;;;;;;;;;;;;29.83;30.16;100588.25;5016905;28;96843;-78
2022/06/08 09:20:35;;;;;;;;;;;;;;;30.34;29.42;100576.53;5008247;28;96942;-77
2022/06/08 09:23:03;;;;;;;;;;;;;;;29.85;30.53;100575.28;5016717;28;99212;-77
2022/06/08 09:25:33;;;;;;;;;;;;;;;29.39;31.26;100574.44;5019854;28;101060;-76
2022/06/08 09:28:00;;;;;;;;;;;;;;;29.25;31.17;100574.16;5007895;28;96891;-77
2022/06/08 09:30:27;;;;;;;;;;;;;;;29.07;31.09;100573.59;5013834;28;97189;-78
2022/06/08 09:32:55;;;;;;;;;;;;;;;29.59;30.66;100562.91;5003623;28;102001;-78
2022/06/08 09:35:24;;;;;;;;;;;;;;;29.65;30.43;100562.19;5008002;28;98963;-77
2022/06/08 09:37:52;;;;;;;;;;;;;;;30.13;29.91;100568.25;5015353;28;96695;-78
2022/06/08 09:43:06;;;;;;;;;;;;;;;29.24;30.41;100558.84;5005810;28;98431;-78
2022/06/08 09:45:39;;;;;;;;;;;;;;;29.31;30.54;100554.38;5009088;28;98949;-78
2022/06/08 09:53:57;;;;;;;;;;;;;;;29.38;31.19;100548.25;5006289;28;96810;-79
2022/06/08 09:56:29;;;;;;;;;;;;;;;29.66;30.25;100542.09;5007915;28;98800;-78
2022/06/08 09:59:01;;;;;;;;;;;;;;;29.32;30.67;100541.63;5007874;28;97055;-78
2022/06/08 10:01:30;;;;;;;;;;;;;;;29.60;30.62;100534.63;5004880;28;96931;-79
2022/06/08 10:04:18;;;;;;;;;;;;;;;29.46;30.51;100535.44;5004882;28;99416;-78
2022/06/08 10:06:52;;;;;;;;;;;;;;;29.25;31.02;100541.50;5000219;28;98950;-79
2022/06/08 10:09:24;;;;;;;;;;;;;;;29.24;31.07;100528.06;5011010;28;96796;-79
2022/06/08 10:11:56;;;;;;;;;;;;;;;29.09;31.37;100529.84;5003183;28;96690;-78
2022/06/08 10:14:31;;;;;;;;;;;;;;;29.13;31.41;100520.34;5002564;28;101857;-79
2022/06/08 10:16:59;;;;;;;;;;;;;;;29.65;30.51;100515.88;5011006;28;98869;-79
2022/06/08 10:19:29;;;;;;;;;;;;;;;29.55;30.28;100511.72;4998743;28;96851;-79
2022/06/08 10:21:56;;;;;;;;;;;;;;;29.73;30.35;100513.06;5017901;28;96692;-75
2022/06/08 10:24:25;;;;;;;;;;;;;;;30.29;29.93;100520.91;5003239;28;99079;-77
2022/06/08 10:26:53;;;;;;;;;;;;;;;30.70;27.84;100513.13;5002432;28;97659;-78
2022/06/08 10:29:22;;;;;;;;;;;;;;;30.48;28.81;100514.88;5009202;28;96761;-79
2022/06/08 10:31:52;;;;;;;;;;;;;;;30.74;29.01;100508.97;5007763;28;96964;-78
2022/06/08 10:34:20;;;;;;;;;;;;;;;30.50;29.23;100510.13;5012840;28;100965;-78
2022/06/08 10:36:47;;;;;;;;;;;;;;;30.91;28.11;100509.63;5007857;28;98852;-78
2022/06/08 10:39:14;;;;;;;;;;;;;;;30.96;28.26;100505.25;5012720;28;96785;-79
2022/06/08 10:44:35;;;;;;;;;;;;;;;30.07;29.05;100507.16;4967116;28;97562;-77
2022/06/08 10:47:18;;;;;;;;;;;;;;;29.36;30.07;100504.88;5007517;28;98067;-79
2022/06/08 10:49:49;;;;;;;;;;;;;;;28.80;30.67;100497.91;4999856;28;97120;-77
2022/06/08 10:52:17;;;;;;;;;;;;;;;29.61;29.68;100497.34;5008526;28;96878;-78
2022/06/08 10:54:55;;;;;;;;;;;;;;;29.40;29.50;100494.50;5007807;28;99038;-78
2022/06/08 10:57:33;;;;;;;;;;;;;;;29.98;29.30;100493.84;5006075;28;97968;-78
2022/06/08 11:00:18;;;;;;;;;;;;;;;29.57;29.60;100496.03;5011168;28;96860;-75
2022/06/08 11:02:49;;;;;;;;;;;;;;;29.74;28.69;100481.25;5005764;28;97145;-78
2022/06/08 11:05:18;;;;;;;;;;;;;;;28.90;30.07;100479.50;5011826;28;99460;-77
2022/06/08 11:08:00;;;;;;;;;;;;;;;29.26;29.90;100487.94;5013807;28;97693;-78
2022/06/08 11:10:41;;;;;;;;;;;;;;;29.05;30.92;100488.59;5013566;28;96781;-79
2022/06/08 11:13:14;;;;;;;;;;;;;;;29.04;30.19;100480.59;5027791;28;96919;-78
2022/06/08 11:15:46;;;;;;;;;;;;;;;28.97;30.17;100475.03;5024644;28;97873;-80
2022/06/08 11:18:24;;;;;;;;;;;;;;;28.57;31.58;100465.19;5021755;28;97671;-79
2022/06/08 11:20:56;;;;;;;;;;;;;;;28.66;31.54;100466.00;5029118;28;96861;-79
2022/06/08 11:23:24;;;;;;;;;;;;;;;28.69;31.32;100463.75;5017824;27;96702;-78
2022/06/08 11:25:53;;;;;;;;;;;;;;;29.06;31.31;100473.09;5028201;28;97995;-79
2022/06/08 11:28:30;;;;;;;;;;;;;;;28.99;30.63;100478.41;5015930;28;99550;-78
2022/06/08 11:30:58;;;;;;;;;;;;;;;29.60;29.51;100471.19;5018786;28;97182;-78
2022/06/08 11:33:45;;;;;;;;;;;;;;;29.93;29.07;100466.31;5028497;28;96695;-80
2022/06/08 11:36:21;;;;;;;;;;;;;;;30.39;28.74;100466.97;5017394;28;98238;-79
2022/06/08 11:38:57;;;;;;;;;;;;;;;30.60;27.97;100464.31;5022268;28;98607;-79
2022/06/08 11:41:27;;;;;;;;;;;;;;;30.63;27.28;100465.84;5010725;28;97183;-79
2022/06/08 11:43:53;;;;;;;;;;;;;;;30.76;27.67;100449.63;5017636;28;96824;-78
2022/06/08 11:46:26;;;;;;;;;;;;;;;30.43;27.88;100458.22;5019782;28;96780;-80
2022/06/08 11:48:54;;;;;;;;;;;;;;;30.66;27.89;100449.06;5008894;28;98828;-80
2022/06/08 11:51:31;;;;;;;;;;;;;;;30.39;28.18;100454.16;5013733;28;96961;-79
2022/06/08 11:53:58;;;;;;;;;;;;;;;29.61;29.63;100437.47;5003901;28;97039;-79
2022/06/08 11:56:30;;;;;;;;;;;;;;;29.39;29.22;100444.66;5019351;28;98970;-79
2022/06/08 11:58:59;;;;;;;;;;;;;;;29.15;29.84;100439.38;5022351;28;99296;-79
2022/06/08 12:01:26;;;;;;;;;;;;;;;29.32;30.04;100444.50;5004064;28;96773;-79
2022/06/08 12:04:04;;;;;;;;;;;;;;;29.29;29.84;100438.56;5008496;28;96819;-79
2022/06/08 12:06:33;;;;;;;;;;;;;;;29.48;29.51;100442.69;5004736;28;98998;-79
2022/06/08 12:09:02;;;;;;;;;;;;;;;29.59;29.42;100432.22;5020103;28;98791;-79
2022/06/08 12:11:30;;;;;;;;;;;;;;;29.60;29.70;100443.97;5010943;28;97181;-79
2022/06/08 12:13:58;;;;;;;;;;;;;;;29.35;29.03;100435.16;5010844;28;96762;-80
2022/06/08 12:16:27;;;;;;;;;;;;;;;29.87;28.35;100437.03;5019375;28;99290;-80
2022/06/08 12:18:56;;;;;;;;;;;;;;;30.71;27.67;100430.28;5020740;28;98751;-79
2022/06/08 12:21:24;;;;;;;;;;;;;;;30.76;27.89;100425.94;5014496;28;96835;-80
2022/06/08 12:24:01;;;;;;;;;;;;;;;30.78;28.43;100426.59;5012799;28;96875;-80
2022/06/08 12:26:36;;;;;;;;;;;;;;;30.68;28.95;100426.03;5011665;28;99532;-79
2022/06/08 12:29:20;;;;;;;;;;;;;;;30.56;27.95;100415.81;5016041;28;98972;-79
2022/06/08 12:31:47;;;;;;;;;;;;;;;30.10;28.70;100418.78;5001932;28;97067;-79
2022/06/08 12:34:33;;;;;;;;;;;;;;;29.90;29.20;100413.00;5009737;28;96821;-80
2022/06/08 12:36:59;;;;;;;;;;;;;;;30.12;28.44;100419.44;5016408;28;98922;-78
2022/06/08 12:39:28;;;;;;;;;;;;;;;30.16;28.22;100412.56;5007873;28;98825;-80
2022/06/08 12:41:55;;;;;;;;;;;;;;;30.31;27.88;100407.97;5018374;28;96781;-79
2022/06/08 12:44:23;;;;;;;;;;;;;;;30.15;28.57;100405.41;5017721;28;97080;-79
2022/06/08 12:46:50;;;;;;;;;;;;;;;30.29;27.92;100403.72;5015584;28;98935;-78
2022/06/08 12:49:18;;;;;;;;;;;;;;;30.16;28.80;100398.09;5004271;28;98886;-79
2022/06/08 12:51:49;;;;;;;;;;;;;;;29.09;29.21;100410.16;5010284;28;96890;-78
2022/06/08 12:54:18;;;;;;;;;;;;;;;29.41;28.77;100412.63;5003770;28;97928;-78
2022/06/08 12:56:45;;;;;;;;;;;;;;;29.71;28.84;100408.13;5004166;28;99442;-80
2022/06/08 12:59:13;;;;;;;;;;;;;;;29.40;28.96;100402.81;5009027;28;99174;-78
2022/06/08 13:01:40;;;;;;;;;;;;;;;28.97;29.43;100406.19;5004803;28;97750;-79
2022/06/08 13:04:06;;;;;;;;;;;;;;;29.07;29.57;100398.66;5008970;28;98083;-79